Detall de PIREP

Printer-friendly versionPDF version

[2011/04/28 07:20:00]
Flight IATA:CT1004
Pilot Number:011
Company ICAO:CAT
Aircraft Type:F28/A
PAX:85
Departing Airport: LEPA
Destination Airport: LPMA
Alternate Airport:GCXO
Online: VATSIM
Route:TURIA UN733 VLC UM985 YES UN747 NARTA UN975 SNT
Flight Level:F330
No Slew and time accel
No pause
Crash detect
Detect pilot in Cockpit between each 30 and 45 minutes
07:20 Zero fuel Weight: 55656 Lbs, Fuel Weight: 17145 Lbs
07:20 VATSIM:LEPA 280700Z 00000KT CAVOK 15/13 Q1012 NOSIG
07:20 VATSIM:LPMA 280700Z VRB02KT 9999 FEW016 16/13 Q1011 RS27002KT 0531001KT 2330004G14KT
07:21 Parking Brakes off
07:35 Take-off
07:35 Take off Weight: 72209 Lbs
07:35 Wind: 001º @ 000 Knots Heading: 059º
07:35 POS N39º 33´ 18´´ E002º 43´ 40´´
07:35 Flaps:3 at 153 Knots
07:35 Gear Up: 153 Knots
07:35 Flaps:2 at 165 Knots
07:36 Flaps:1 at 168 Knots
07:36 Flaps:0 at 172 Knots
07:50 Wind:059º@008 Knots Heading: 265º Ground Speed: 393 Knots Altitude 25016 ft
07:57 TOC
07:57 Fuel Weight: 13990 Lb
08:05 Wind:070º@012 Knots Heading: 230º Ground Speed: 465 Knots Altitude 32936 ft
08:20 Wind:050º@004 Knots Heading: 231º Ground Speed: 458 Knots Altitude 32949 ft
08:35 Wind:079º@020 Knots Heading: 246º Ground Speed: 473 Knots Altitude 32936 ft
08:50 Wind:079º@019 Knots Heading: 256º Ground Speed: 477 Knots Altitude 32874 ft
09:05 Wind:071º@007 Knots Heading: 255º Ground Speed: 464 Knots Altitude 32874 ft
09:45 TOD
09:45 Fuel Weight: 6502 Lb
10:06 Flaps:1 at 221 Knots
10:08 Flaps:2 at 189 Knots
10:09 Flaps:3 at 165 Knots
10:09 Gear Down: 161 Knots
10:10 Flaps:4 at 150 Knots
10:10 Flaps:5 at 142 Knots
10:13 TouchDown:Rate -182 ft/min Speed: 100 Knots
10:14 Flaps:0 at 37 Knots
10:14 VATSIM:LPMA 281000Z 06003KT 010V140 9999 SCT015 FEW016CB 19/14 Q1011 RS08002KT 0510001KT 2308003KT
10:14 Land
10:14 Wind:069º@003 Knots
10:14 Heading: 045º
10:14 Flight Duration: 02:39
10:14 Landing Weight: 60846 Lbs
10:14 POS N32º 42´ 01´´ W016º 46´ 17´´
10:18 Parking brakes on
10:18 Block to Block Duration: 02:57
10:18 Final Fuel: 5092 Lbls
10:18 Spent Fuel: 12052 Lbls
10:18 Flight Length: 322 NM
10:18 TOD Land Length: 00 NM

Exportar CSV

Powered by Drupal - Modified by Danger4k